Date,TemperatureHighF,TemperatureAvgF,TemperatureLowF,DewpointHighF,DewpointAvgF,DewpointLowF,HumidityHigh,HumidityAvg,HumidityLow,PressureMaxIn,PressureMinIn,WindSpeedMaxMPH,WindSpeedAvgMPH,GustSpeedMaxMPH,PrecipitationSumIn
2013-2-1,76.5,76.5,76.5,51.0,51.0,51.0,32,32,32,27.11,27.02,33,11,33,0.04
2013-2-2,76.5,76.5,76.5,51.0,51.0,51.0,32,32,32,27.11,27.02,28,10,28,0.04
2013-2-3,76.5,76.5,76.5,51.0,51.0,51.0,32,32,32,27.11,27.02,19,6,19,0.04
2013-2-4,76.5,76.5,76.5,51.0,51.0,51.0,32,32,32,27.11,27.02,16,5,16,0.04
2013-2-5,76.5,76.5,76.5,51.0,51.0,51.0,32,32,32,27.11,27.02,22,6,22,0.98
2013-2-6,76.5,76.5,76.5,51.0,51.0,51.0,32,32,32,27.14,27.02,18,6,18,0.04
2013-2-7,76.5,76.5,76.5,51.0,51.0,51.0,32,32,32,27.11,27.02,19,6,19,0.04
2013-2-8,76.5,76.5,76.5,51.0,51.0,51.0,32,32,32,27.11,27.02,27,7,27,0.04
2013-2-9,76.5,76.5,76.5,51.0,51.0,51.0,32,32,32,27.11,27.02,26,8,26,0.04
2013-2-10,76.5,76.5,76.5,51.0,51.0,51.0,32,32,32,27.14,27.05,21,7,21,0.04
2013-2-11,76.5,76.5,76.5,51.0,51.0,51.0,32,32,32,27.14,27.05,17,6,17,0.04
2013-2-12,76.5,76.5,76.5,51.0,51.0,51.0,32,32,32,27.14,27.05,17,5,17,0.04
2013-2-13,76.5,76.5,76.5,51.0,51.0,51.0,32,32,32,27.11,27.02,15,4,15,0.04
2013-2-14,76.5,76.5,76.5,51.0,51.0,51.0,32,32,32,27.14,27.02,13,5,13,0.75
2013-2-15,76.5,76.5,76.5,51.0,51.0,51.0,32,32,32,27.11,27.02,17,6,17,0.04
2013-2-16,76.5,76.5,76.5,51.0,51.0,51.0,32,32,32,27.14,27.02,22,7,22,0.04
2013-2-17,76.5,76.5,76.5,51.0,51.0,51.0,32,32,32,27.14,27.02,30,10,30,0.04
2013-2-18,76.5,76.5,76.5,51.0,51.0,51.0,32,32,32,27.11,26.99,28,10,28,0.04
2013-2-19,76.5,76.5,76.5,51.0,51.0,51.0,32,32,32,27.08,26.99,24,8,24,0.04
2013-2-20,76.5,76.5,76.5,51.0,51.0,51.0,32,32,32,27.05,26.99,23,8,23,0.04
2013-2-21,76.5,76.5,76.5,51.0,51.0,51.0,32,32,32,27.08,26.96,23,8,23,0.04
2013-2-22,76.5,76.5,76.5,51.0,51.0,51.0,32,32,32,27.11,26.99,17,6,17,0.04
2013-2-23,76.5,76.5,76.5,51.0,51.0,51.0,32,32,32,27.11,27.02,17,4,17,0.04
2013-2-24,76.5,76.5,76.5,51.0,51.0,51.0,32,32,32,27.11,26.99,15,5,15,0.04
2013-2-25,76.5,76.5,76.5,51.0,51.0,51.0,32,32,32,27.05,26.96,16,3,16,0.04
2013-2-26,76.5,76.5,76.5,51.0,51.0,51.0,32,32,32,27.08,26.99,15,2,15,0.04
2013-2-27,76.5,76.5,76.5,51.0,51.0,51.0,32,32,32,27.11,27.02,25,6,25,0.04
2013-2-28,76.5,76.5,76.5,51.0,51.0,51.0,32,32,32,27.11,27.02,19,6,19,0.04